createdAt,value
2018-12-12T00:00:31.396Z,304.18
2018-12-12T00:02:59.447Z,293.07
2018-12-12T00:05:27.495Z,482.60
2018-12-12T00:07:55.526Z,436.85
2018-12-12T00:10:23.581Z,516.70
2018-12-12T00:12:51.646Z,486.28
2018-12-12T00:15:19.896Z,412.62
2018-12-12T00:17:48.716Z,343.73
2018-12-12T00:20:16.765Z,348.32
2018-12-12T00:22:44.806Z,269.57
2018-12-12T00:25:12.871Z,703.35
2018-12-12T00:27:40.908Z,352.32
2018-12-12T00:30:09.055Z,576.58
2018-12-12T00:32:37.133Z,358.40
2018-12-12T00:35:05.303Z,702.15
2018-12-12T00:37:33.443Z,408.90
2018-12-12T00:40:01.494Z,211.87
2018-12-12T00:42:29.521Z,328.37
2018-12-12T00:44:57.557Z,517.87
2018-12-12T00:47:25.580Z,281.90
2018-12-12T00:49:53.609Z,352.07
2018-12-12T00:52:21.651Z,488.45
2018-12-12T00:54:49.897Z,467.93
2018-12-12T00:57:18.351Z,584.45
2018-12-12T00:59:46.378Z,337.68
2018-12-12T01:02:14.469Z,416.73
2018-12-12T01:04:42.502Z,698.20
2018-12-12T01:07:10.545Z,625.70
2018-12-12T01:09:38.583Z,393.75
2018-12-12T01:12:10.932Z,587.02
2018-12-12T01:14:38.957Z,465.58
2018-12-12T01:17:06.999Z,466.92
2018-12-12T01:19:35.076Z,553.62
2018-12-12T01:22:03.209Z,376.60
2018-12-12T01:24:31.247Z,503.32
2018-12-12T01:26:59.285Z,530.58
2018-12-12T01:29:27.317Z,872.35
2018-12-12T01:31:55.351Z,541.23
2018-12-12T01:34:23.381Z,682.20
2018-12-12T01:36:52.141Z,708.70
2018-12-12T01:39:20.141Z,871.00
2018-12-12T01:41:48.169Z,587.12
2018-12-12T01:44:16.229Z,683.65
2018-12-12T01:46:44.245Z,549.65
2018-12-12T01:49:12.373Z,311.80
2018-12-12T01:51:40.405Z,481.32
2018-12-12T01:54:08.465Z,220.65
2018-12-12T01:56:36.562Z,176.90
2018-12-12T01:59:04.585Z,255.57
2018-12-12T02:01:32.621Z,417.00
2018-12-12T02:04:00.658Z,255.25
2018-12-12T02:06:28.709Z,344.18
2018-12-12T02:08:56.759Z,377.32
2018-12-12T02:11:24.803Z,251.47
2018-12-12T02:13:52.837Z,252.97
2018-12-12T02:16:20.982Z,180.32
2018-12-12T02:18:49.124Z,298.23
2018-12-12T02:21:17.142Z,378.12
2018-12-12T02:23:45.174Z,99.80
2018-12-12T02:26:13.193Z,178.70
2018-12-12T02:28:41.222Z,347.30
2018-12-12T02:31:09.333Z,173.82
2018-12-12T02:33:37.378Z,179.38
2018-12-12T02:36:05.535Z,301.30
2018-12-12T02:38:33.566Z,228.80
2018-12-12T02:41:01.604Z,309.67
2018-12-12T02:43:29.628Z,244.87
2018-12-12T02:45:57.663Z,400.57
2018-12-12T02:48:25.686Z,643.45
2018-12-12T02:50:53.719Z,1438.23
2018-12-12T02:53:21.782Z,874.20
2018-12-12T02:55:49.901Z,807.15
2018-12-12T02:58:17.945Z,504.15
2018-12-12T03:00:45.971Z,441.25
2018-12-12T03:03:13.989Z,459.20
2018-12-12T03:05:42.122Z,883.53
2018-12-12T03:08:10.244Z,679.15
2018-12-12T03:10:38.274Z,735.83
2018-12-12T03:13:06.308Z,556.02
2018-12-12T03:15:34.342Z,487.57
2018-12-12T03:18:02.361Z,590.73
2018-12-12T03:20:30.408Z,469.15
2018-12-12T03:22:58.425Z,307.32
2018-12-12T03:25:26.450Z,342.10
2018-12-12T03:27:54.490Z,587.15
2018-12-12T03:30:22.519Z,268.07
2018-12-12T03:32:50.613Z,715.05
2018-12-12T03:35:18.609Z,665.35
2018-12-12T03:37:46.629Z,373.10
2018-12-12T03:40:14.749Z,620.95
2018-12-12T03:42:42.867Z,771.10
2018-12-12T03:45:10.977Z,792.75
2018-12-12T03:47:38.989Z,801.17
2018-12-12T03:50:07.143Z,647.77
2018-12-12T03:52:35.180Z,1028.58
2018-12-12T03:55:03.334Z,554.53
2018-12-12T03:57:31.367Z,365.15
2018-12-12T03:59:59.380Z,326.58
2018-12-12T04:02:27.398Z,391.12
2018-12-12T04:04:55.438Z,367.45
2018-12-12T04:07:23.485Z,629.90
2018-12-12T04:09:51.511Z,824.38
2018-12-12T04:12:19.534Z,520.57
2018-12-12T04:14:47.649Z,586.80
2018-12-12T04:17:15.772Z,486.45
2018-12-12T04:19:43.782Z,167.03
2018-12-12T04:22:11.949Z,350.27
2018-12-12T04:24:40.196Z,389.42
2018-12-12T04:27:08.228Z,374.48
2018-12-12T04:29:36.251Z,208.45
2018-12-12T04:32:04.259Z,160.32
2018-12-12T04:34:32.307Z,301.32
2018-12-12T04:37:00.435Z,177.25
2018-12-12T04:39:28.555Z,162.18
2018-12-12T04:41:56.577Z,145.53
2018-12-12T04:44:24.606Z,232.35
2018-12-12T04:46:52.713Z,344.93
2018-12-12T04:49:20.757Z,196.18
2018-12-12T04:51:48.779Z,131.87
2018-12-12T04:54:16.913Z,153.20
2018-12-12T04:56:44.926Z,133.40
2018-12-12T04:59:13.153Z,207.35
2018-12-12T05:01:41.168Z,166.75
2018-12-12T05:04:09.183Z,182.30
2018-12-12T05:06:37.201Z,219.30
2018-12-12T05:09:06.162Z,193.07
2018-12-12T05:11:34.213Z,382.12
2018-12-12T05:14:02.516Z,206.65
2018-12-12T05:16:30.673Z,132.35
2018-12-12T05:18:58.734Z,272.60
2018-12-12T05:21:26.783Z,259.23
2018-12-12T05:23:54.825Z,150.53
2018-12-12T05:26:22.833Z,275.00
2018-12-12T05:28:50.853Z,333.52
2018-12-12T05:31:18.873Z,208.93
2018-12-12T05:33:46.910Z,335.60
2018-12-12T05:36:14.956Z,229.40
2018-12-12T05:38:42.986Z,186.28
2018-12-12T05:41:11.029Z,316.73
2018-12-12T05:43:39.088Z,357.23
2018-12-12T05:46:07.161Z,230.37
2018-12-12T05:48:35.229Z,401.37
2018-12-12T05:51:03.252Z,375.45
2018-12-12T05:53:31.281Z,250.55
2018-12-12T05:56:02.419Z,229.18
2018-12-12T05:58:29.326Z,650.92
2018-12-12T06:00:57.349Z,832.20
2018-12-12T06:03:25.392Z,171.87
2018-12-12T06:05:53.493Z,387.57
2018-12-12T06:08:21.515Z,409.98
2018-12-12T06:10:49.554Z,313.62
2018-12-12T06:13:17.566Z,379.93
2018-12-12T06:15:45.682Z,270.55
2018-12-12T06:18:13.764Z,295.85
2018-12-12T06:20:41.798Z,273.50
2018-12-12T06:23:09.894Z,287.85
2018-12-12T06:25:38.079Z,374.62
2018-12-12T06:28:06.188Z,373.93
2018-12-12T06:30:34.204Z,332.87
2018-12-12T06:33:02.230Z,427.32
2018-12-12T06:35:30.368Z,340.87
2018-12-12T06:37:58.396Z,312.40
2018-12-12T06:40:26.436Z,343.85
2018-12-12T06:42:54.530Z,167.85
2018-12-12T06:45:22.648Z,349.27
2018-12-12T06:47:50.662Z,306.82
2018-12-12T06:50:18.704Z,283.82
2018-12-12T06:52:46.786Z,209.15
2018-12-12T06:55:14.834Z,170.50
2018-12-12T06:57:42.960Z,347.48
2018-12-12T07:00:10.977Z,427.32
2018-12-12T07:02:39.028Z,421.63
2018-12-12T07:05:07.217Z,228.15
2018-12-12T07:07:35.362Z,877.45
2018-12-12T07:10:03.505Z,233.15
2018-12-12T07:12:31.517Z,240.65
2018-12-12T07:14:59.671Z,568.33
2018-12-12T07:17:27.685Z,224.30
2018-12-12T07:19:56.642Z,216.85
2018-12-12T07:22:24.672Z,417.07
2018-12-12T07:24:52.708Z,632.08
2018-12-12T07:27:20.734Z,519.85
2018-12-12T07:29:48.741Z,778.33
2018-12-12T07:32:16.778Z,539.95
2018-12-12T07:34:44.798Z,562.42
2018-12-12T07:37:12.960Z,483.18
2018-12-12T07:39:40.980Z,232.05
2018-12-12T07:42:09.027Z,240.05
2018-12-12T07:44:37.060Z,193.90
2018-12-12T07:47:05.055Z,424.88
2018-12-12T07:49:33.286Z,479.68
2018-12-12T07:52:01.285Z,346.48
2018-12-12T07:54:29.330Z,340.62
2018-12-12T07:56:57.342Z,444.05
2018-12-12T07:59:25.374Z,287.45
2018-12-12T08:01:53.404Z,101.47
2018-12-12T08:04:21.432Z,131.27
2018-12-12T08:06:49.458Z,156.30
2018-12-12T08:09:17.480Z,107.55
2018-12-12T08:11:45.514Z,95.15
2018-12-12T08:14:13.518Z,36.38
2018-12-12T08:16:41.842Z,32.93
2018-12-12T08:19:09.850Z,32.17
2018-12-12T08:21:37.866Z,30.52
2018-12-12T08:24:05.902Z,29.92
2018-12-12T08:26:33.908Z,31.73
2018-12-12T08:29:02.058Z,32.17
2018-12-12T08:31:30.059Z,34.95
2018-12-12T08:33:58.092Z,33.70
2018-12-12T08:36:26.108Z,33.50
2018-12-12T08:38:54.135Z,33.88
2018-12-12T08:41:22.268Z,34.85
2018-12-12T08:43:50.286Z,33.15
2018-12-12T08:46:18.316Z,33.13
2018-12-12T08:48:46.346Z,33.95
2018-12-12T08:51:14.390Z,35.78
2018-12-12T08:53:42.400Z,33.70
2018-12-12T08:56:10.433Z,29.18
2018-12-12T08:58:38.458Z,34.10
2018-12-12T09:01:06.492Z,31.25
2018-12-12T09:03:34.551Z,29.82
2018-12-12T09:06:02.566Z,35.25
2018-12-12T09:08:30.586Z,35.52
2018-12-12T09:10:58.731Z,33.10
2018-12-12T09:13:26.759Z,35.73
2018-12-12T09:15:54.769Z,33.33
2018-12-12T09:18:22.807Z,37.98
2018-12-12T09:20:50.852Z,34.73
2018-12-12T09:23:18.870Z,37.98
2018-12-12T09:25:46.912Z,36.75
2018-12-12T09:28:15.008Z,33.53
2018-12-12T09:30:43.007Z,35.48
2018-12-12T09:33:11.040Z,37.75
2018-12-12T09:35:39.056Z,35.68
2018-12-12T09:38:07.093Z,37.23
2018-12-12T09:40:35.620Z,34.73
2018-12-12T09:43:03.778Z,38.53
2018-12-12T09:45:31.821Z,41.53
2018-12-12T09:47:59.948Z,39.38
2018-12-12T09:50:28.286Z,41.42
2018-12-12T09:52:56.419Z,44.95
2018-12-12T09:55:24.476Z,50.33
2018-12-12T09:57:52.470Z,48.87
2018-12-12T10:00:20.506Z,46.23
2018-12-12T10:02:48.512Z,47.75
2018-12-12T10:05:16.525Z,42.95
2018-12-12T10:07:44.536Z,46.45
2018-12-12T10:10:12.555Z,41.58
2018-12-12T10:12:40.602Z,42.73
2018-12-12T10:15:08.748Z,42.70
2018-12-12T10:17:36.781Z,42.30
2018-12-12T10:20:04.926Z,43.58
2018-12-12T10:22:32.978Z,46.80
2018-12-12T10:25:00.993Z,44.88
2018-12-12T10:27:29.056Z,43.17
2018-12-12T10:29:57.099Z,46.05
2018-12-12T10:32:25.114Z,42.45
2018-12-12T10:34:53.181Z,36.42
2018-12-12T10:37:21.246Z,42.98
2018-12-12T10:39:49.262Z,47.70
2018-12-12T10:42:17.313Z,40.83
2018-12-12T10:44:45.386Z,45.65
2018-12-12T10:47:13.457Z,47.33
2018-12-12T10:49:41.490Z,49.53
2018-12-12T10:52:09.518Z,44.30
2018-12-12T10:54:37.536Z,42.10
2018-12-12T10:57:05.564Z,46.45
2018-12-12T10:59:33.654Z,49.03
2018-12-12T11:02:07.080Z,50.60
2018-12-12T11:04:35.187Z,48.23
2018-12-12T11:07:03.324Z,54.95
2018-12-12T11:09:31.377Z,46.92
2018-12-12T11:11:59.418Z,53.68
2018-12-12T11:14:27.466Z,46.33
2018-12-12T11:16:55.538Z,48.17
2018-12-12T11:19:23.570Z,48.15
2018-12-12T11:21:51.610Z,48.35
2018-12-12T11:24:19.628Z,43.33
2018-12-12T11:26:47.654Z,49.20
2018-12-12T11:29:15.708Z,40.98
2018-12-12T11:31:43.743Z,45.08
2018-12-12T11:34:11.774Z,38.48
2018-12-12T11:36:39.818Z,44.63
2018-12-12T11:39:07.844Z,40.50
2018-12-12T11:41:35.870Z,36.43
2018-12-12T11:44:03.924Z,34.93
2018-12-12T11:46:32.055Z,37.73
2018-12-12T11:49:00.084Z,31.43
2018-12-12T11:51:28.109Z,32.33
2018-12-12T11:53:56.126Z,28.80
2018-12-12T11:56:24.174Z,27.03
2018-12-12T11:58:52.196Z,34.03
2018-12-12T12:01:20.240Z,26.60
2018-12-12T12:03:48.318Z,25.27
2018-12-12T12:06:16.350Z,23.47
2018-12-12T12:08:44.398Z,20.63
2018-12-12T12:11:12.434Z,17.03
2018-12-12T12:13:40.472Z,20.93
2018-12-12T12:16:08.516Z,17.73
2018-12-12T12:18:36.602Z,17.00
2018-12-12T12:21:04.672Z,16.03
2018-12-12T12:23:32.712Z,21.93
2018-12-12T12:26:00.746Z,22.90
2018-12-12T12:28:28.783Z,23.47
2018-12-12T12:30:56.816Z,15.63
2018-12-12T12:33:24.842Z,12.80
2018-12-12T12:35:52.905Z,13.50
2018-12-12T12:38:20.962Z,17.00
2018-12-12T12:40:49.104Z,14.63
2018-12-12T12:43:17.106Z,15.43
2018-12-12T12:45:45.208Z,18.73
2018-12-12T12:48:13.361Z,15.63
2018-12-12T12:50:41.394Z,16.33
2018-12-12T12:53:09.446Z,13.23
2018-12-12T12:55:37.492Z,14.40
2018-12-12T12:58:05.543Z,16.93
2018-12-12T13:00:33.590Z,14.20
2018-12-12T13:03:01.639Z,15.50
2018-12-12T13:05:29.672Z,13.57
2018-12-12T13:07:57.694Z,16.37
2018-12-12T13:10:26.101Z,14.77
2018-12-12T13:12:54.319Z,19.13
2018-12-12T13:15:22.543Z,17.90
2018-12-12T13:17:50.660Z,15.20
2018-12-12T13:20:18.689Z,14.67
2018-12-12T13:22:46.709Z,10.60
2018-12-12T13:25:14.800Z,11.97
2018-12-12T13:27:42.844Z,12.47
2018-12-12T13:30:10.986Z,16.00
2018-12-12T13:32:38.997Z,13.47
2018-12-12T13:35:07.324Z,11.53
2018-12-12T13:37:35.370Z,8.87
2018-12-12T13:40:03.606Z,7.43
2018-12-12T13:42:31.755Z,10.50
2018-12-12T13:44:59.814Z,8.47
2018-12-12T13:47:27.861Z,9.47
2018-12-12T13:49:55.892Z,10.93
2018-12-12T13:52:23.939Z,9.87
2018-12-12T13:54:52.055Z,8.47
2018-12-12T13:57:20.058Z,9.77
2018-12-12T13:59:48.095Z,11.87
2018-12-12T14:02:16.108Z,10.37
2018-12-12T14:04:44.158Z,33.20
2018-12-12T14:07:12.169Z,109.57
2018-12-12T14:09:40.238Z,9.10
2018-12-12T14:12:08.262Z,11.50
2018-12-12T14:14:36.294Z,17.00
2018-12-12T14:17:04.429Z,27.87
2018-12-12T14:19:32.468Z,49.00
2018-12-12T14:22:00.534Z,14.17
2018-12-12T14:24:28.558Z,9.20
2018-12-12T14:26:56.695Z,12.77
2018-12-12T14:29:24.748Z,12.87
2018-12-12T14:31:52.755Z,11.13
2018-12-12T14:34:20.816Z,11.20
2018-12-12T14:36:48.850Z,13.33
2018-12-12T14:39:16.882Z,16.70
2018-12-12T14:41:44.926Z,12.10
2018-12-12T14:44:12.942Z,16.67
2018-12-12T14:46:41.234Z,14.40
2018-12-12T14:49:09.269Z,18.87
2018-12-12T14:51:37.309Z,15.07
2018-12-12T14:54:05.326Z,16.93
2018-12-12T14:56:33.371Z,15.83
2018-12-12T14:59:01.435Z,14.67
2018-12-12T15:01:29.468Z,13.87
2018-12-12T15:03:57.498Z,17.70
2018-12-12T15:06:25.533Z,18.37
2018-12-12T15:08:53.557Z,13.90
2018-12-12T15:11:21.598Z,16.13
2018-12-12T15:13:49.629Z,17.93
2018-12-12T15:16:17.679Z,16.77
2018-12-12T15:18:45.722Z,21.77
2018-12-12T15:21:13.722Z,16.17
2018-12-12T15:23:41.751Z,15.63
2018-12-12T15:26:09.808Z,20.03
2018-12-12T15:28:37.878Z,15.90
2018-12-12T15:31:05.919Z,22.23
2018-12-12T15:33:33.946Z,22.80
2018-12-12T15:36:01.982Z,15.03
2018-12-12T15:38:29.997Z,16.63
2018-12-12T15:40:58.027Z,17.00
2018-12-12T15:43:26.089Z,20.33
2018-12-12T15:45:54.136Z,15.50
2018-12-12T15:48:22.236Z,18.37
2018-12-12T15:50:50.276Z,17.17
2018-12-12T15:53:18.310Z,16.30
2018-12-12T15:55:46.367Z,19.87
2018-12-12T15:58:14.429Z,20.93
2018-12-12T16:00:42.519Z,19.07
2018-12-12T16:03:10.752Z,15.67
2018-12-12T16:05:38.806Z,20.27
2018-12-12T16:08:06.846Z,18.30
2018-12-12T16:10:34.898Z,19.47
2018-12-12T16:13:02.994Z,19.33
2018-12-12T16:15:31.016Z,18.23
2018-12-12T16:17:59.116Z,14.93
2018-12-12T16:20:27.158Z,18.93
2018-12-12T16:22:55.208Z,16.70
2018-12-12T16:25:23.260Z,18.00
2018-12-12T16:27:52.269Z,16.53
2018-12-12T16:30:20.445Z,16.33
2018-12-12T16:32:48.494Z,17.10
2018-12-12T16:35:16.920Z,18.30
2018-12-12T16:37:44.959Z,16.35
2018-12-12T16:40:13.011Z,15.43
2018-12-12T16:42:41.068Z,14.93
2018-12-12T16:45:09.127Z,17.80
2018-12-12T16:47:37.177Z,15.80
2018-12-12T16:50:06.112Z,15.97
2018-12-12T16:52:34.195Z,18.53
2018-12-12T16:55:02.239Z,16.43
2018-12-12T16:57:30.290Z,18.33
2018-12-12T16:59:58.340Z,19.20
2018-12-12T17:02:26.385Z,18.77
2018-12-12T17:04:54.424Z,17.37
2018-12-12T17:07:22.492Z,20.23
2018-12-12T17:09:50.527Z,17.03
2018-12-12T17:12:18.592Z,18.37
2018-12-12T17:14:53.175Z,18.73
2018-12-12T17:17:21.237Z,14.83
2018-12-12T17:19:49.328Z,17.10
2018-12-12T17:22:17.404Z,16.80
2018-12-12T17:24:45.470Z,16.70
2018-12-12T17:27:13.540Z,15.35
2018-12-12T17:29:42.807Z,14.68
2018-12-12T17:32:10.887Z,16.42
2018-12-12T17:34:39.531Z,19.02
2018-12-12T17:37:07.599Z,17.37
2018-12-12T17:39:36.321Z,18.35
2018-12-12T17:42:04.599Z,19.02
2018-12-12T17:44:32.696Z,17.67
2018-12-12T17:47:01.358Z,19.37
2018-12-12T17:49:29.445Z,21.37
2018-12-12T17:51:57.580Z,16.77
2018-12-12T17:54:25.711Z,18.07
2018-12-12T17:56:53.865Z,16.25
2018-12-12T17:59:21.934Z,19.48
2018-12-12T18:01:50.011Z,19.02
2018-12-12T18:04:18.103Z,17.23
2018-12-12T18:06:46.171Z,22.00
2018-12-12T18:09:14.241Z,16.25
2018-12-12T18:11:42.325Z,18.70
2018-12-12T18:14:10.418Z,19.92
2018-12-12T18:16:39.115Z,19.10
2018-12-12T18:19:07.289Z,19.70
2018-12-12T18:21:35.388Z,20.40
2018-12-12T18:24:03.621Z,19.05
2018-12-12T18:26:31.721Z,20.43
2018-12-12T18:28:59.858Z,27.10
2018-12-12T18:31:27.973Z,18.27
2018-12-12T18:33:56.105Z,17.55
2018-12-12T18:36:24.241Z,16.82
2018-12-12T18:38:53.548Z,16.97
2018-12-12T18:41:22.116Z,14.40
2018-12-12T18:43:50.587Z,17.48
2018-12-12T18:46:18.734Z,13.62
2018-12-12T18:48:47.379Z,13.03
2018-12-12T18:51:15.494Z,13.62
2018-12-12T18:53:43.636Z,12.07
2018-12-12T18:56:11.829Z,11.78
2018-12-12T18:58:40.314Z,13.35
2018-12-12T19:01:08.503Z,10.13
2018-12-12T19:03:38.764Z,15.10
2018-12-12T19:06:07.184Z,12.18
2018-12-12T19:08:35.293Z,12.18
2018-12-12T19:11:03.571Z,11.33
2018-12-12T19:13:38.999Z,11.27
2018-12-12T19:16:07.919Z,12.05
2018-12-12T19:18:36.055Z,13.20
2018-12-12T19:21:04.362Z,12.90
2018-12-12T19:23:32.615Z,14.23
2018-12-12T19:26:01.098Z,12.03
2018-12-12T19:28:29.242Z,14.07
2018-12-12T19:30:57.379Z,12.75
2018-12-12T19:33:26.151Z,11.12
2018-12-12T19:35:54.315Z,13.08
2018-12-12T19:38:22.927Z,13.85
2018-12-12T19:40:51.084Z,15.20
2018-12-12T19:43:19.239Z,14.40
2018-12-12T19:45:48.552Z,13.00
2018-12-12T19:48:17.647Z,14.98
2018-12-12T19:50:47.883Z,14.58
2018-12-12T19:53:16.061Z,14.00
2018-12-12T19:55:45.545Z,13.68
2018-12-12T19:58:14.176Z,14.53
2018-12-12T20:00:42.346Z,15.23
2018-12-12T20:03:13.726Z,14.60
2018-12-12T20:05:42.527Z,13.73
2018-12-12T20:08:10.690Z,13.18
2018-12-12T20:10:38.955Z,13.25
2018-12-12T20:13:08.234Z,14.55
2018-12-12T20:15:41.872Z,14.50
2018-12-12T20:18:10.489Z,14.23
2018-12-12T20:20:38.990Z,13.05
2018-12-12T20:23:08.754Z,15.55
2018-12-12T20:25:37.301Z,12.28
2018-12-12T20:28:05.498Z,14.03
2018-12-12T20:30:35.699Z,12.40
2018-12-12T20:33:05.021Z,15.10
2018-12-12T20:35:34.360Z,13.15
2018-12-12T20:38:02.501Z,11.75
2018-12-12T20:40:31.278Z,11.55
2018-12-12T20:42:59.859Z,14.25
2018-12-12T20:45:28.377Z,14.23
2018-12-12T20:47:56.757Z,12.10
2018-12-12T20:50:25.690Z,11.97
2018-12-12T20:52:54.266Z,14.38
2018-12-12T20:55:22.760Z,12.15
2018-12-12T20:57:50.944Z,13.45
2018-12-12T21:00:20.372Z,15.93
2018-12-12T21:02:49.375Z,10.55
2018-12-12T21:05:18.740Z,15.00
2018-12-12T21:07:47.620Z,13.00
2018-12-12T21:10:15.767Z,12.63
2018-12-12T21:12:43.893Z,10.65
2018-12-12T21:15:12.330Z,15.15
2018-12-12T21:17:40.483Z,33.30
2018-12-12T21:20:09.287Z,19.48
2018-12-12T21:22:37.427Z,18.67
2018-12-12T21:25:08.301Z,14.53
2018-12-12T21:27:36.434Z,11.83
2018-12-12T21:30:04.715Z,12.60
2018-12-12T21:32:32.960Z,12.37
2018-12-12T21:35:01.087Z,12.13
2018-12-12T21:37:30.075Z,13.75
2018-12-12T21:39:58.193Z,11.83
2018-12-12T21:42:26.933Z,13.40
2018-12-12T21:44:55.053Z,11.03
2018-12-12T21:47:23.277Z,12.88
2018-12-12T21:49:51.369Z,12.88
2018-12-12T21:52:19.577Z,11.80
2018-12-12T21:54:47.713Z,14.00
2018-12-12T21:57:15.901Z,13.10
2018-12-12T21:59:43.987Z,11.48
2018-12-12T22:02:12.458Z,13.22
2018-12-12T22:04:40.601Z,11.88
2018-12-12T22:07:08.789Z,13.22
2018-12-12T22:09:36.901Z,13.45
2018-12-12T22:12:04.993Z,12.37
2018-12-12T22:14:33.084Z,10.90
2018-12-12T22:17:01.293Z,13.13
2018-12-12T22:19:29.388Z,12.30
2018-12-12T22:21:57.501Z,10.32
2018-12-12T22:24:25.546Z,11.70
2018-12-12T22:26:53.645Z,11.33
2018-12-12T22:29:22.562Z,10.43
2018-12-12T22:31:50.651Z,14.30
2018-12-12T22:34:18.768Z,11.53
2018-12-12T22:36:46.836Z,11.10
2018-12-12T22:39:14.885Z,11.48
2018-12-12T22:41:42.909Z,12.40
2018-12-12T22:44:10.977Z,10.75
2018-12-12T22:46:39.031Z,10.15
2018-12-12T22:49:07.076Z,11.57
2018-12-12T22:51:35.184Z,11.00
2018-12-12T22:54:03.211Z,10.85
2018-12-12T22:56:31.255Z,12.00
2018-12-12T22:58:59.315Z,12.50
2018-12-12T23:01:27.392Z,12.35
2018-12-12T23:03:55.428Z,9.43
2018-12-12T23:06:23.461Z,10.95
2018-12-12T23:08:51.620Z,10.93
2018-12-12T23:11:19.679Z,9.35
2018-12-12T23:13:47.900Z,10.95
2018-12-12T23:16:16.005Z,9.23
2018-12-12T23:18:44.146Z,8.35
2018-12-12T23:21:12.230Z,10.00
2018-12-12T23:23:40.273Z,9.58
2018-12-12T23:26:08.363Z,8.30
2018-12-12T23:28:36.432Z,10.40
2018-12-12T23:31:04.456Z,10.70
2018-12-12T23:33:32.491Z,11.30
2018-12-12T23:36:00.520Z,9.08
2018-12-12T23:38:28.599Z,9.23
2018-12-12T23:40:56.622Z,11.30
2018-12-12T23:43:24.732Z,10.88
2018-12-12T23:45:52.746Z,8.00
2018-12-12T23:48:20.758Z,8.53
2018-12-12T23:50:48.766Z,10.23
2018-12-12T23:53:16.818Z,7.60
2018-12-12T23:55:44.828Z,7.70
2018-12-12T23:58:12.844Z,8.45
